createdAt,value
2018-06-11T00:00:08.095Z,56.18
2018-06-11T00:01:17.535Z,56.28
2018-06-11T00:02:27.222Z,55.92
2018-06-11T00:03:36.673Z,56.09
2018-06-11T00:04:46.424Z,56.09
2018-06-11T00:05:55.611Z,56.09
2018-06-11T00:07:04.583Z,56.28
2018-06-11T00:08:13.481Z,55.89
2018-06-11T00:09:22.890Z,56.11
2018-06-11T00:10:32.049Z,55.99
2018-06-11T00:11:41.805Z,55.99
2018-06-11T00:12:51.474Z,56.21
2018-06-11T00:14:00.698Z,56.09
2018-06-11T00:15:10.166Z,56.09
2018-06-11T00:16:20.343Z,56.21
2018-06-11T00:17:29.565Z,55.99
2018-06-11T00:18:38.780Z,56.09
2018-06-11T00:19:48.481Z,55.92
2018-06-11T00:20:58.155Z,55.79
2018-06-11T00:22:07.619Z,55.89
2018-06-11T00:23:17.100Z,55.99
2018-06-11T00:24:26.306Z,55.6
2018-06-11T00:25:35.516Z,55.69
2018-06-11T00:26:44.405Z,55.89
2018-06-11T00:27:53.557Z,55.79
2018-06-11T00:29:02.978Z,55.6
2018-06-11T00:30:12.405Z,55.5
2018-06-11T00:31:21.821Z,55.63
2018-06-11T00:32:30.974Z,55.5
2018-06-11T00:33:40.123Z,55.53
2018-06-11T00:34:49.799Z,55.89
2018-06-11T00:35:59.724Z,55.6
2018-06-11T00:37:08.946Z,55.6
2018-06-11T00:38:18.372Z,55.5
2018-06-11T00:39:28.032Z,55.99
2018-06-11T00:40:37.738Z,55.5
2018-06-11T00:41:46.894Z,55.79
2018-06-11T00:42:56.567Z,55.5
2018-06-11T00:44:06.247Z,55.41
2018-06-11T00:45:15.396Z,55.5
2018-06-11T00:46:24.810Z,55.5
2018-06-11T00:47:34.230Z,55.41
2018-06-11T00:48:43.633Z,55.41
2018-06-11T00:49:52.881Z,55.41
2018-06-11T00:51:02.867Z,55.5
2018-06-11T00:52:12.019Z,55.41
2018-06-11T00:53:21.696Z,55.41
2018-06-11T00:54:31.400Z,55.69
2018-06-11T00:55:40.559Z,55.69
2018-06-11T00:56:49.979Z,55.6
2018-06-11T00:57:59.392Z,55.69
2018-06-11T00:59:09.071Z,55.69
2018-06-11T01:00:18.499Z,55.89
2018-06-11T01:01:27.669Z,55.6
2018-06-11T01:02:37.355Z,55.6
2018-06-11T01:03:46.758Z,55.6
2018-06-11T01:04:56.485Z,55.69
2018-06-11T01:06:05.895Z,55.69
2018-06-11T01:07:15.608Z,55.89
2018-06-11T01:08:25.291Z,55.6
2018-06-11T01:09:34.717Z,55.89
2018-06-11T01:10:44.383Z,55.6
2018-06-11T01:11:53.549Z,55.89
2018-06-11T01:13:03.214Z,55.31
2018-06-11T01:14:12.375Z,55.41
2018-06-11T01:15:22.315Z,55.41
2018-06-11T01:16:31.725Z,55.89
2018-06-11T01:17:41.145Z,55.6
2018-06-11T01:18:51.093Z,55.69
2018-06-11T01:20:00.520Z,55.69
2018-06-11T01:21:10.200Z,55.69
2018-06-11T01:22:19.620Z,55.69
2018-06-11T01:23:29.560Z,55.79
2018-06-11T01:24:38.736Z,55.69
2018-06-11T01:25:47.918Z,55.79
2018-06-11T01:26:57.337Z,55.89
2018-06-11T01:28:06.759Z,55.5
2018-06-11T01:29:15.934Z,55.87
2018-06-11T01:30:25.094Z,55.79
2018-06-11T01:31:35.040Z,55.67
2018-06-11T01:32:44.469Z,55.79
2018-06-11T01:33:53.616Z,55.77
2018-06-11T01:35:02.511Z,55.5
2018-06-11T01:36:12.185Z,55.6
2018-06-11T01:37:22.110Z,55.5
2018-06-11T01:38:31.271Z,55.57
2018-06-11T01:39:40.694Z,55.67
2018-06-11T01:40:49.847Z,55.77
2018-06-11T01:41:59.019Z,55.77
2018-06-11T01:43:08.176Z,55.87
2018-06-11T01:44:17.592Z,55.87
2018-06-11T01:45:27.315Z,55.67
2018-06-11T01:46:36.471Z,55.77
2018-06-11T01:47:45.902Z,55.47
2018-06-11T01:48:55.845Z,55.38
2018-06-11T01:50:05.522Z,55.38
2018-06-11T01:51:14.927Z,55.18
2018-06-11T01:52:24.899Z,55.38
2018-06-11T01:53:34.568Z,55.28
2018-06-11T01:54:44.236Z,55.28
2018-06-11T01:55:53.894Z,55.38
2018-06-11T01:57:02.851Z,55.38
2018-06-11T01:58:12.279Z,55.38
2018-06-11T01:59:21.425Z,55.28
2018-06-11T02:00:30.577Z,54.99
2018-06-11T02:01:39.747Z,55.08
2018-06-11T02:02:48.904Z,55.28
2018-06-11T02:03:58.312Z,55.18
2018-06-11T02:05:07.720Z,54.99
2018-06-11T02:06:17.143Z,55.08
2018-06-11T02:07:26.832Z,54.99
2018-06-11T02:08:36.242Z,54.9
2018-06-11T02:09:46.168Z,54.8
2018-06-11T02:10:55.584Z,54.8
2018-06-11T02:12:04.752Z,54.9
2018-06-11T02:13:13.899Z,55.28
2018-06-11T02:14:23.303Z,55.18
2018-06-11T02:15:32.991Z,55.18
2018-06-11T02:16:42.424Z,55.18
2018-06-11T02:17:51.613Z,55.18
2018-06-11T02:19:01.273Z,55.18
2018-06-11T02:20:10.424Z,54.99
2018-06-11T02:21:20.122Z,54.9
2018-06-11T02:22:28.783Z,55.18
2018-06-11T02:23:37.677Z,54.9
2018-06-11T02:24:47.088Z,55.18
2018-06-11T02:25:56.760Z,54.99
2018-06-11T02:27:06.170Z,54.99
2018-06-11T02:28:15.338Z,54.99
2018-06-11T02:29:24.229Z,55.38
2018-06-11T02:30:33.122Z,55.18
2018-06-11T02:31:42.543Z,55.18
2018-06-11T02:32:52.225Z,55.08
2018-06-11T02:34:01.639Z,54.99
2018-06-11T02:35:11.066Z,55.38
2018-06-11T02:36:20.485Z,55.28
2018-06-11T02:37:30.163Z,55.28
2018-06-11T02:38:39.849Z,55.28
2018-06-11T02:39:49.257Z,54.9
2018-06-11T02:40:58.678Z,55.18
2018-06-11T02:42:08.115Z,54.99
2018-06-11T02:43:17.834Z,54.9
2018-06-11T02:44:27.241Z,54.8
2018-06-11T02:45:36.920Z,54.7
2018-06-11T02:46:46.339Z,54.6
2018-06-11T02:47:55.752Z,54.8
2018-06-11T02:49:05.424Z,54.6
2018-06-11T02:50:15.092Z,54.9
2018-06-11T02:51:24.510Z,54.8
2018-06-11T02:52:34.179Z,54.7
2018-06-11T02:53:43.839Z,54.7
2018-06-11T02:54:53.270Z,54.8
2018-06-11T02:56:03.205Z,54.7
2018-06-11T02:57:12.909Z,54.7
2018-06-11T02:58:22.070Z,54.6
2018-06-11T02:59:31.498Z,54.6
2018-06-11T03:00:40.708Z,54.6
2018-06-11T03:01:50.125Z,54.8
2018-06-11T03:02:59.293Z,54.6
2018-06-11T03:04:08.715Z,54.6
2018-06-11T03:05:18.126Z,54.6
2018-06-11T03:06:27.545Z,54.7
2018-06-11T03:07:36.732Z,54.7
2018-06-11T03:08:46.427Z,54.7
2018-06-11T03:09:56.112Z,54.7
2018-06-11T03:11:05.804Z,54.7
2018-06-11T03:12:15.483Z,54.9
2018-06-11T03:13:25.163Z,54.99
2018-06-11T03:14:34.845Z,54.7
2018-06-11T03:15:44.539Z,54.7
2018-06-11T03:16:53.718Z,54.7
2018-06-11T03:18:03.158Z,54.6
2018-06-11T03:19:12.578Z,54.7
2018-06-11T03:20:22.247Z,54.7
2018-06-11T03:21:31.678Z,54.7
2018-06-11T03:22:41.117Z,54.6
2018-06-11T03:23:50.546Z,54.6
2018-06-11T03:25:00.222Z,54.8
2018-06-11T03:26:09.699Z,54.9
2018-06-11T03:27:19.373Z,54.8
2018-06-11T03:28:29.055Z,54.8
2018-06-11T03:29:38.759Z,54.31
2018-06-11T03:30:48.200Z,54.7
2018-06-11T03:31:57.620Z,54.5
2018-06-11T03:33:07.043Z,54.6
2018-06-11T03:34:15.931Z,54.11
2018-06-11T03:35:25.590Z,54.21
2018-06-11T03:36:35.275Z,54.9
2018-06-11T03:37:44.683Z,54.9
2018-06-11T03:38:53.846Z,54.77
2018-06-11T03:40:03.020Z,54.58
2018-06-11T03:41:12.437Z,54.6
2018-06-11T03:42:21.853Z,54.7
2018-06-11T03:43:31.019Z,54.6
2018-06-11T03:44:39.922Z,54.8
2018-06-11T03:45:49.346Z,54.31
2018-06-11T03:46:58.812Z,54.8
2018-06-11T03:48:08.241Z,54.31
2018-06-11T03:49:17.144Z,54.6
2018-06-11T03:50:26.568Z,54.6
2018-06-11T03:51:36.247Z,54.6
2018-06-11T03:52:45.739Z,54.41
2018-06-11T03:53:55.195Z,54.41
2018-06-11T03:55:04.100Z,54.5
2018-06-11T03:56:13.001Z,54.7
2018-06-11T03:57:22.921Z,54.7
2018-06-11T03:58:32.598Z,54.6
2018-06-11T03:59:41.750Z,54.41
2018-06-11T04:00:50.749Z,54.7
2018-06-11T04:02:00.170Z,54.41
2018-06-11T04:03:09.360Z,54.7
2018-06-11T04:04:18.763Z,54.5
2018-06-11T04:05:28.177Z,54.58
2018-06-11T04:06:37.594Z,54.41
2018-06-11T04:07:47.260Z,54.7
2018-06-11T04:08:56.423Z,54.41
2018-06-11T04:10:05.579Z,54.7
2018-06-11T04:11:15.105Z,54.11
2018-06-11T04:12:24.461Z,54.67
2018-06-11T04:13:34.143Z,54.41
2018-06-11T04:14:43.306Z,54.48
2018-06-11T04:15:52.732Z,54.11
2018-06-11T04:17:02.176Z,54.38
2018-06-11T04:18:11.342Z,54.7
2018-06-11T04:19:20.770Z,54.31
2018-06-11T04:20:30.240Z,54.21
2018-06-11T04:21:39.405Z,54.19
2018-06-11T04:22:49.330Z,54.21
2018-06-11T04:23:58.999Z,54.7
2018-06-11T04:25:08.474Z,54.58
2018-06-11T04:26:17.908Z,54.67
2018-06-11T04:27:27.594Z,54.67
2018-06-11T04:28:36.487Z,54.48
2018-06-11T04:29:46.150Z,54.19
2018-06-11T04:30:55.563Z,54.19
2018-06-11T04:32:04.978Z,54.67
2018-06-11T04:33:14.134Z,54.67
2018-06-11T04:34:23.554Z,54.67
2018-06-11T04:35:33.236Z,54.48
2018-06-11T04:36:42.898Z,54.67
2018-06-11T04:37:52.580Z,54.19
2018-06-11T04:39:01.742Z,54.67
2018-06-11T04:40:11.155Z,54.19
2018-06-11T04:41:20.585Z,54.09
2018-06-11T04:42:29.498Z,54.38
2018-06-11T04:43:38.657Z,54.38
2018-06-11T04:44:47.552Z,54.38
2018-06-11T04:45:56.506Z,54.38
2018-06-11T04:47:06.435Z,54.38
2018-06-11T04:48:16.632Z,54.48
2018-06-11T04:49:25.810Z,54.48
2018-06-11T04:50:34.979Z,54.48
2018-06-11T04:51:44.664Z,54.38
2018-06-11T04:52:53.812Z,54.28
2018-06-11T04:54:03.212Z,54.38
2018-06-11T04:55:12.368Z,54.48
2018-06-11T04:56:21.792Z,54.28
2018-06-11T04:57:31.482Z,54.28
2018-06-11T04:58:40.641Z,54.48
2018-06-11T04:59:50.835Z,54.38
2018-06-11T05:01:00.020Z,54.38
2018-06-11T05:02:09.185Z,54.58
2018-06-11T05:03:18.832Z,54.38
2018-06-11T05:04:29.908Z,54.86
2018-06-11T05:05:39.642Z,54.58
2018-06-11T05:06:48.796Z,54.28
2018-06-11T05:07:58.215Z,54.28
2018-06-11T05:09:07.372Z,54.21
2018-06-11T05:10:16.805Z,54.28
2018-06-11T05:11:26.243Z,54.09
2018-06-11T05:12:35.653Z,54.41
2018-06-11T05:13:45.079Z,54.31
2018-06-11T05:14:54.751Z,54.09
2018-06-11T05:16:04.434Z,53.73
2018-06-11T05:17:14.107Z,53.63
2018-06-11T05:18:23.254Z,53.73
2018-06-11T05:19:32.921Z,53.73
2018-06-11T05:20:42.323Z,53.83
2018-06-11T05:21:51.721Z,54.02
2018-06-11T05:23:01.145Z,53.63
2018-06-11T05:24:10.576Z,53.63
2018-06-11T05:25:20.529Z,53.63
2018-06-11T05:26:29.938Z,53.83
2018-06-11T05:27:39.350Z,53.53
2018-06-11T05:28:49.065Z,53.63
2018-06-11T05:29:59.176Z,53.63
2018-06-11T05:31:08.853Z,53.92
2018-06-11T05:32:18.249Z,54.21
2018-06-11T05:33:27.387Z,53.73
2018-06-11T05:34:36.581Z,53.92
2018-06-11T05:35:46.774Z,53.83
2018-06-11T05:36:55.673Z,53.83
2018-06-11T05:38:05.667Z,53.44
2018-06-11T05:39:14.869Z,53.44
2018-06-11T05:40:24.999Z,53.73
2018-06-11T05:41:34.648Z,53.34
2018-06-11T05:42:44.573Z,53.34
2018-06-11T05:43:54.269Z,53.34
2018-06-11T05:45:03.695Z,53.53
2018-06-11T05:46:13.132Z,53.63
2018-06-11T05:47:22.570Z,53.92
2018-06-11T05:48:31.997Z,53.53
2018-06-11T05:49:41.964Z,53.53
2018-06-11T05:50:51.133Z,53.53
2018-06-11T05:52:00.818Z,53.63
2018-06-11T05:53:10.553Z,53.53
2018-06-11T05:54:19.725Z,53.24
2018-06-11T05:55:29.393Z,53.73
2018-06-11T05:56:39.054Z,53.24
2018-06-11T05:57:48.994Z,53.24
2018-06-11T05:58:58.920Z,53.63
2018-06-11T06:00:08.347Z,53.24
2018-06-11T06:01:17.568Z,53.73
2018-06-11T06:02:26.689Z,53.34
2018-06-11T06:03:35.844Z,53.44
2018-06-11T06:04:45.510Z,53.34
2018-06-11T06:05:54.927Z,54.11
2018-06-11T06:07:04.607Z,53.34
2018-06-11T06:08:13.522Z,54.02
2018-06-11T06:09:22.719Z,53.34
2018-06-11T06:10:32.151Z,53.24
2018-06-11T06:11:41.825Z,53.24
2018-06-11T06:12:50.768Z,53.63
2018-06-11T06:14:00.187Z,53.44
2018-06-11T06:15:09.958Z,53.44
2018-06-11T06:16:19.432Z,53.73
2018-06-11T06:17:29.177Z,53.53
2018-06-11T06:18:38.606Z,53.73
2018-06-11T06:19:47.781Z,53.53
2018-06-11T06:20:56.949Z,53.83
2018-06-11T06:22:06.123Z,53.34
2018-06-11T06:23:15.292Z,53.73
2018-06-11T06:24:24.729Z,53.73
2018-06-11T06:25:33.645Z,53.34
2018-06-11T06:26:43.402Z,53.56
2018-06-11T06:27:53.550Z,53.24
2018-06-11T06:29:02.726Z,53.44
2018-06-11T06:30:11.894Z,53.47
2018-06-11T06:31:21.322Z,53.44
2018-06-11T06:32:31.266Z,53.34
2018-06-11T06:33:40.688Z,53.24
2018-06-11T06:34:50.236Z,53.47
2018-06-11T06:35:59.544Z,53.47
2018-06-11T06:37:08.999Z,53.34
2018-06-11T06:38:18.424Z,53.37
2018-06-11T06:39:27.620Z,53.56
2018-06-11T06:40:37.756Z,53.27
2018-06-11T06:41:47.171Z,53.47
2018-06-11T06:42:55.803Z,53.17
2018-06-11T06:44:05.478Z,53.27
2018-06-11T06:45:15.174Z,53.47
2018-06-11T06:46:24.589Z,53.37
2018-06-11T06:47:34.008Z,53.17
2018-06-11T06:48:43.418Z,53.47
2018-06-11T06:49:52.578Z,53.37
2018-06-11T06:51:01.985Z,53.27
2018-06-11T06:52:10.886Z,53.56
2018-06-11T06:53:20.038Z,53.56
2018-06-11T06:54:29.196Z,53.37
2018-06-11T06:55:38.901Z,53.27
2018-06-11T06:56:48.826Z,53.27
2018-06-11T06:57:58.513Z,53.37
2018-06-11T06:59:07.948Z,53.37
2018-06-11T07:00:17.366Z,53.17
2018-06-11T07:01:26.543Z,53.27
2018-06-11T07:02:36.224Z,53.17
2018-06-11T07:03:45.385Z,53.37
2018-06-11T07:04:54.550Z,53.27
2018-06-11T07:06:03.975Z,53.27
2018-06-11T07:07:13.131Z,53.27
2018-06-11T07:08:22.543Z,53.27
2018-06-11T07:09:32.246Z,53.27
2018-06-11T07:10:41.705Z,53.27
2018-06-11T07:11:51.374Z,53.37
2018-06-11T07:13:00.536Z,53.17
2018-06-11T07:14:10.216Z,53.27
2018-06-11T07:15:19.622Z,53.27
2018-06-11T07:16:28.775Z,53.37
2018-06-11T07:17:38.463Z,53.27
2018-06-11T07:18:48.144Z,53.37
2018-06-11T07:19:58.068Z,53.27
2018-06-11T07:21:07.990Z,53.27
2018-06-11T07:22:17.423Z,53.27
2018-06-11T07:23:27.092Z,53.27
2018-06-11T07:24:36.516Z,53.27
2018-06-11T07:25:45.682Z,53.27
2018-06-11T07:26:54.846Z,53.27
2018-06-11T07:28:04.594Z,53.27
2018-06-11T07:29:13.771Z,53.27
2018-06-11T07:30:23.181Z,53.27
2018-06-11T07:31:32.349Z,53.27
2018-06-11T07:32:42.056Z,53.47
2018-06-11T07:33:51.729Z,53.27
2018-06-11T07:35:01.068Z,53.27
2018-06-11T07:36:10.566Z,53.37
2018-06-11T07:37:20.286Z,53.37
2018-06-11T07:38:29.697Z,53.27
2018-06-11T07:39:39.121Z,53.56
2018-06-11T07:40:48.809Z,53.27
2018-06-11T07:41:58.798Z,53.27
2018-06-11T07:43:08.485Z,53.27
2018-06-11T07:44:17.651Z,53.17
2018-06-11T07:45:26.830Z,53.47
2018-06-11T07:46:36.511Z,53.27
2018-06-11T07:47:45.953Z,53.27
2018-06-11T07:48:55.886Z,53.27
2018-06-11T07:50:05.054Z,53.27
2018-06-11T07:51:14.476Z,53.47
2018-06-11T07:52:23.119Z,53.17
2018-06-11T07:53:32.395Z,53.27
2018-06-11T07:54:41.829Z,53.27
2018-06-11T07:55:51.515Z,53.56
2018-06-11T07:57:01.209Z,53.37
2018-06-11T07:58:11.213Z,53.27
2018-06-11T07:59:20.907Z,53.27
2018-06-11T08:00:30.335Z,53.47
2018-06-11T08:01:40.030Z,53.17
2018-06-11T08:02:49.741Z,53.47
2018-06-11T08:03:59.176Z,53.17
2018-06-11T08:05:08.625Z,53.17
2018-06-11T08:06:17.524Z,53.27
2018-06-11T08:07:27.235Z,53.56
2018-06-11T08:08:36.521Z,53.37
2018-06-11T08:09:45.692Z,53.17
2018-06-11T08:10:55.378Z,53.47
2018-06-11T08:12:05.099Z,53.47
2018-06-11T08:13:14.532Z,53.47
2018-06-11T08:14:24.275Z,53.17
2018-06-11T08:15:33.474Z,53.27
2018-06-11T08:16:42.906Z,53.47
2018-06-11T08:17:52.075Z,53.37
2018-06-11T08:19:01.248Z,53.27
2018-06-11T08:20:10.396Z,53.56
2018-06-11T08:21:20.336Z,53.17
2018-06-11T08:22:29.763Z,53.27
2018-06-11T08:23:39.424Z,53.27
2018-06-11T08:24:48.855Z,53.27
2018-06-11T08:25:58.277Z,53.27
2018-06-11T08:27:07.677Z,53.27
2018-06-11T08:28:16.828Z,53.47
2018-06-11T08:29:26.257Z,53.17
2018-06-11T08:30:35.916Z,53.66
2018-06-11T08:31:45.064Z,53.37
2018-06-11T08:32:54.233Z,53.47
2018-06-11T08:34:04.345Z,53.17
2018-06-11T08:35:13.520Z,53.17
2018-06-11T08:36:22.929Z,53.37
2018-06-11T08:37:32.886Z,53.27
2018-06-11T08:38:41.810Z,53.27
2018-06-11T08:39:51.519Z,53.27
2018-06-11T08:41:00.687Z,53.27
2018-06-11T08:42:10.519Z,53.27
2018-06-11T08:43:20.452Z,53.17
2018-06-11T08:44:29.664Z,53.27
2018-06-11T08:45:38.860Z,53.27
2018-06-11T08:46:48.029Z,53.27
2018-06-11T08:47:57.712Z,53.27
2018-06-11T08:49:07.133Z,53.27
2018-06-11T08:50:16.577Z,53.27
2018-06-11T08:51:25.753Z,53.27
2018-06-11T08:52:35.195Z,53.37
2018-06-11T08:53:45.135Z,53.37
2018-06-11T08:54:54.302Z,53.27
2018-06-11T08:56:04.001Z,53.17
2018-06-11T08:57:14.006Z,53.17
2018-06-11T08:58:22.914Z,53.27
2018-06-11T08:59:32.069Z,53.27
2018-06-11T09:00:42.009Z,53.17
2018-06-11T09:01:51.688Z,53.17
2018-06-11T09:03:00.886Z,53.37
2018-06-11T09:04:10.306Z,53.17
2018-06-11T09:05:19.208Z,53.27
2018-06-11T09:06:28.375Z,53.27
2018-06-11T09:07:38.044Z,53.27
2018-06-11T09:08:47.459Z,53.27
2018-06-11T09:09:57.124Z,53.37
2018-06-11T09:11:06.790Z,53.17
2018-06-11T09:12:15.450Z,53.37
2018-06-11T09:13:24.365Z,53.17
2018-06-11T09:14:34.039Z,53.27
2018-06-11T09:15:42.943Z,53.27
2018-06-11T09:16:52.617Z,53.27
2018-06-11T09:18:01.872Z,53.37
2018-06-11T09:19:12.096Z,53.37
2018-06-11T09:20:22.012Z,53.27
2018-06-11T09:21:31.417Z,53.37
2018-06-11T09:22:41.098Z,53.37
2018-06-11T09:23:50.272Z,53.37
2018-06-11T09:24:59.750Z,53.17
2018-06-11T09:26:09.551Z,53.27
2018-06-11T09:27:18.964Z,53.37
2018-06-11T09:28:28.383Z,53.3
2018-06-11T09:29:38.317Z,53.27
2018-06-11T09:30:47.476Z,53.2
2018-06-11T09:31:56.913Z,53.37
2018-06-11T09:33:06.074Z,53.17
2018-06-11T09:34:14.990Z,53.37
2018-06-11T09:35:24.919Z,53.37
2018-06-11T09:36:34.602Z,53.27
2018-06-11T09:37:43.500Z,53.37
2018-06-11T09:38:52.917Z,53.27
2018-06-11T09:40:02.323Z,53.27
2018-06-11T09:41:11.212Z,53.37
2018-06-11T09:42:20.639Z,53.37
2018-06-11T09:43:30.655Z,53.27
2018-06-11T09:44:40.077Z,53.27
2018-06-11T09:45:49.244Z,53.27
2018-06-11T09:46:58.919Z,53.3
2018-06-11T09:48:07.920Z,53.27
2018-06-11T09:49:17.417Z,53.27
2018-06-11T09:50:26.926Z,53.27
2018-06-11T09:51:36.906Z,53.17
2018-06-11T09:52:45.796Z,53.27
2018-06-11T09:53:55.726Z,53.27
2018-06-11T09:55:04.878Z,53.37
2018-06-11T09:56:13.819Z,53.37
2018-06-11T09:57:23.258Z,53.27
2018-06-11T09:58:32.419Z,53.27
2018-06-11T09:59:41.691Z,53.27
2018-06-11T10:00:51.154Z,53.3
2018-06-11T10:02:00.341Z,53.27
2018-06-11T10:03:09.495Z,53.2
2018-06-11T10:04:19.168Z,53.39
2018-06-11T10:05:28.864Z,53.17
2018-06-11T10:06:38.549Z,53.27
2018-06-11T10:07:47.960Z,53.27
2018-06-11T10:08:57.393Z,53.27
2018-06-11T10:10:07.129Z,53.37
2018-06-11T10:11:16.549Z,53.27
2018-06-11T10:12:25.995Z,53.27
2018-06-11T10:13:36.135Z,53.27
2018-06-11T10:14:46.329Z,53.27
2018-06-11T10:15:56.005Z,53.27
2018-06-11T10:17:05.416Z,53.39
2018-06-11T10:18:15.143Z,53.27
2018-06-11T10:19:24.929Z,53.27
2018-06-11T10:20:34.347Z,53.27
2018-06-11T10:21:43.754Z,53.27
2018-06-11T10:22:53.429Z,53.27
2018-06-11T10:24:02.856Z,53.3
2018-06-11T10:25:12.299Z,53.17
2018-06-11T10:26:22.247Z,53.27
2018-06-11T10:27:31.686Z,53.3
2018-06-11T10:28:41.372Z,53.27
2018-06-11T10:29:50.261Z,53.27
2018-06-11T10:30:59.443Z,53.27
2018-06-11T10:32:08.856Z,53.37
2018-06-11T10:33:18.194Z,53.47
2018-06-11T10:34:27.603Z,53.17
2018-06-11T10:35:37.543Z,53.47
2018-06-11T10:36:46.696Z,53.27
2018-06-11T10:37:55.591Z,53.17
2018-06-11T10:39:05.433Z,53.2
2018-06-11T10:40:15.362Z,53.56
2018-06-11T10:41:24.787Z,53.47
2018-06-11T10:42:34.016Z,53.56
2018-06-11T10:43:42.977Z,53.37
2018-06-11T10:44:52.236Z,53.27
2018-06-11T10:46:01.912Z,53.27
2018-06-11T10:47:11.062Z,53.47
2018-06-11T10:48:20.211Z,53.3
2018-06-11T10:49:29.887Z,53.17
2018-06-11T10:50:39.317Z,53.49
2018-06-11T10:51:49.280Z,53.56
2018-06-11T10:52:58.970Z,53.27
2018-06-11T10:54:07.881Z,53.56
2018-06-11T10:55:17.053Z,53.56
2018-06-11T10:56:26.201Z,53.47
2018-06-11T10:57:35.373Z,53.2
2018-06-11T10:58:44.523Z,53.27
2018-06-11T10:59:53.407Z,53.56
2018-06-11T11:01:02.877Z,53.66
2018-06-11T11:02:12.035Z,53.27
2018-06-11T11:03:21.716Z,53.27
2018-06-11T11:04:31.013Z,53.47
2018-06-11T11:05:40.909Z,53.37
2018-06-11T11:06:50.345Z,53.49
2018-06-11T11:08:00.175Z,53.3
2018-06-11T11:09:09.598Z,53.17
2018-06-11T11:10:19.018Z,53.27
2018-06-11T11:11:27.921Z,53.27
2018-06-11T11:12:37.692Z,53.37
2018-06-11T11:13:47.336Z,53.47
2018-06-11T11:14:56.505Z,53.47
2018-06-11T11:16:05.489Z,53.3
2018-06-11T11:17:14.944Z,53.59
2018-06-11T11:18:24.379Z,53.27
2018-06-11T11:19:33.806Z,53.56
2018-06-11T11:20:42.737Z,53.27
2018-06-11T11:21:51.671Z,53.27
2018-06-11T11:23:01.166Z,53.17
2018-06-11T11:24:10.593Z,53.49
2018-06-11T11:25:20.291Z,53.47
2018-06-11T11:26:29.761Z,53.27
2018-06-11T11:27:39.954Z,53.27
2018-06-11T11:28:49.657Z,53.47
2018-06-11T11:29:59.349Z,53.39
2018-06-11T11:31:09.065Z,53.3
2018-06-11T11:32:18.238Z,53.49
2018-06-11T11:33:27.662Z,53.27
2018-06-11T11:34:37.372Z,53.47
2018-06-11T11:35:47.071Z,53.27
2018-06-11T11:36:56.012Z,53.27
2018-06-11T11:38:05.555Z,53.37
2018-06-11T11:39:14.984Z,53.3
2018-06-11T11:40:24.150Z,53.47
2018-06-11T11:41:33.630Z,53.17
2018-06-11T11:42:43.055Z,53.27
2018-06-11T11:43:52.210Z,53.27
2018-06-11T11:45:01.381Z,53.3
2018-06-11T11:46:11.189Z,53.27
2018-06-11T11:47:21.263Z,53.27
2018-06-11T11:48:30.241Z,53.49
2018-06-11T11:49:39.684Z,53.27
2018-06-11T11:50:49.131Z,53.27
2018-06-11T11:51:58.818Z,53.59
2018-06-11T11:53:07.977Z,53.3
2018-06-11T11:54:17.113Z,53.3
2018-06-11T11:55:26.818Z,53.27
2018-06-11T11:56:36.223Z,53.39
2018-06-11T11:57:45.940Z,53.47
2018-06-11T11:58:55.399Z,53.56
2018-06-11T12:00:04.975Z,53.47
2018-06-11T12:01:14.658Z,53.27
2018-06-11T12:02:24.341Z,53.27
2018-06-11T12:03:34.028Z,53.17
2018-06-11T12:04:43.737Z,53.17
2018-06-11T12:05:53.408Z,53.37
2018-06-11T12:07:03.336Z,53.49
2018-06-11T12:08:13.325Z,53.39
2018-06-11T12:09:22.894Z,53.69
2018-06-11T12:10:32.056Z,53.47
2018-06-11T12:11:41.534Z,53.56
2018-06-11T12:12:51.472Z,53.37
2018-06-11T12:14:00.618Z,53.27
2018-06-11T12:15:09.564Z,53.49
2018-06-11T12:16:18.967Z,53.47
2018-06-11T12:17:28.118Z,53.27
2018-06-11T12:18:37.312Z,53.59
2018-06-11T12:19:46.734Z,53.39
2018-06-11T12:20:56.175Z,53.59
2018-06-11T12:22:05.617Z,53.47
2018-06-11T12:23:15.306Z,53.59
2018-06-11T12:24:24.968Z,53.37
2018-06-11T12:25:34.646Z,53.47
2018-06-11T12:26:43.816Z,53.39
2018-06-11T12:27:53.251Z,53.59
2018-06-11T12:29:02.993Z,53.39
2018-06-11T12:30:11.887Z,53.59
2018-06-11T12:31:21.096Z,53.47
2018-06-11T12:32:30.570Z,53.49
2018-06-11T12:33:40.000Z,53.59
2018-06-11T12:34:49.436Z,53.47
2018-06-11T12:35:58.938Z,53.49
2018-06-11T12:37:08.295Z,53.59
2018-06-11T12:38:17.709Z,53.49
2018-06-11T12:39:26.608Z,53.39
2018-06-11T12:40:36.321Z,53.37
2018-06-11T12:41:45.547Z,53.49
2018-06-11T12:42:54.786Z,53.39
2018-06-11T12:44:03.862Z,53.59
2018-06-11T12:45:13.297Z,53.49
2018-06-11T12:46:22.464Z,53.59
2018-06-11T12:47:31.997Z,53.49
2018-06-11T12:48:41.658Z,53.39
2018-06-11T12:49:50.992Z,53.39
2018-06-11T12:51:00.452Z,53.59
2018-06-11T12:52:09.948Z,53.59
2018-06-11T12:53:18.852Z,53.49
2018-06-11T12:54:28.526Z,53.49
2018-06-11T12:55:38.063Z,53
2018-06-11T12:56:47.224Z,53.59
2018-06-11T12:57:56.483Z,53.59
2018-06-11T12:59:05.121Z,53.49
2018-06-11T13:00:14.550Z,53
2018-06-11T13:01:23.970Z,53.1
2018-06-11T13:02:33.581Z,53.1
2018-06-11T13:03:43.018Z,53.59
2018-06-11T13:04:52.866Z,53.49
2018-06-11T13:06:02.353Z,53.1
2018-06-11T13:07:12.160Z,53.59
2018-06-11T13:08:21.724Z,53.39
2018-06-11T13:09:31.911Z,53.39
2018-06-11T13:10:41.620Z,53.39
2018-06-11T13:11:51.041Z,53.39
2018-06-11T13:13:00.579Z,53.3
2018-06-11T13:14:10.076Z,53.1
2018-06-11T13:15:19.357Z,53.59
2018-06-11T13:16:29.065Z,53
2018-06-11T13:17:38.510Z,52.91
2018-06-11T13:18:48.202Z,53.3
2018-06-11T13:19:57.613Z,53
2018-06-11T13:21:06.501Z,53.39
2018-06-11T13:22:16.179Z,53
2018-06-11T13:23:25.880Z,53
2018-06-11T13:24:35.311Z,53.49
2018-06-11T13:25:45.236Z,53.3
2018-06-11T13:26:54.665Z,53.3
2018-06-11T13:28:03.556Z,52.81
2018-06-11T13:29:12.734Z,53.39
2018-06-11T13:30:21.930Z,53.39
2018-06-11T13:31:31.675Z,53
2018-06-11T13:32:41.088Z,53.49
2018-06-11T13:33:50.567Z,53.3
2018-06-11T13:34:59.995Z,53.1
2018-06-11T13:36:09.674Z,53.3
2018-06-11T13:37:18.841Z,53.49
2018-06-11T13:38:28.285Z,53.1
2018-06-11T13:39:37.449Z,53.1
2018-06-11T13:40:46.613Z,53.1
2018-06-11T13:41:56.452Z,53.1
2018-06-11T13:43:05.345Z,52.91
2018-06-11T13:44:14.527Z,53.59
2018-06-11T13:45:23.690Z,53.59
2018-06-11T13:46:33.394Z,53.2
2018-06-11T13:47:42.800Z,53.49
2018-06-11T13:48:52.211Z,53.59
2018-06-11T13:50:01.126Z,53.59
2018-06-11T13:51:10.613Z,53.59
2018-06-11T13:52:20.021Z,53.59
2018-06-11T13:53:29.443Z,53.59
2018-06-11T13:54:39.138Z,53.59
2018-06-11T13:55:49.083Z,53.49
2018-06-11T13:56:58.840Z,53.2
2018-06-11T13:58:08.740Z,53.59
2018-06-11T13:59:17.896Z,53.39
2018-06-11T14:00:27.326Z,53.49
2018-06-11T14:01:37.000Z,53.39
2018-06-11T14:02:46.445Z,53.39
2018-06-11T14:03:55.855Z,53.49
2018-06-11T14:05:05.520Z,53.49
2018-06-11T14:06:15.462Z,53.59
2018-06-11T14:07:25.401Z,53.39
2018-06-11T14:08:34.809Z,53.39
2018-06-11T14:09:44.205Z,53.39
2018-06-11T14:10:54.154Z,53.37
2018-06-11T14:12:03.588Z,53.49
2018-06-11T14:13:13.024Z,53.49
2018-06-11T14:14:22.440Z,53.49
2018-06-11T14:15:31.343Z,53.39
2018-06-11T14:16:41.275Z,53.49
2018-06-11T14:17:50.514Z,53.49
2018-06-11T14:19:00.189Z,53.39
2018-06-11T14:20:09.866Z,53.3
2018-06-11T14:21:19.534Z,53.49
2018-06-11T14:22:28.703Z,53.56
2018-06-11T14:23:38.387Z,53.39
2018-06-11T14:24:47.799Z,53.49
2018-06-11T14:25:56.950Z,53.39
2018-06-11T14:27:06.613Z,53.59
2018-06-11T14:28:16.037Z,53.39
2018-06-11T14:29:25.504Z,53.49
2018-06-11T14:30:35.196Z,53.49
2018-06-11T14:31:44.357Z,53.49
2018-06-11T14:32:53.288Z,53.59
2018-06-11T14:34:02.964Z,53.39
2018-06-11T14:35:12.640Z,53.59
2018-06-11T14:36:22.311Z,53.39
2018-06-11T14:37:31.725Z,53.39
2018-06-11T14:38:41.384Z,53.39
2018-06-11T14:39:50.836Z,53.39
2018-06-11T14:41:00.010Z,53.59
2018-06-11T14:42:09.197Z,53.49
2018-06-11T14:43:18.352Z,53.59
2018-06-11T14:44:27.317Z,53.49
2018-06-11T14:45:37.006Z,53.3
2018-06-11T14:46:46.163Z,53.37
2018-06-11T14:47:55.835Z,53.49
2018-06-11T14:49:05.772Z,53.59
2018-06-11T14:50:14.932Z,53.37
2018-06-11T14:51:24.359Z,53.49
2018-06-11T14:52:34.082Z,53.39
2018-06-11T14:53:43.275Z,53.49
2018-06-11T14:54:52.442Z,53.37
2018-06-11T14:56:01.871Z,53.49
2018-06-11T14:57:11.052Z,53.49
2018-06-11T14:58:20.844Z,53.39
2018-06-11T14:59:30.600Z,53.49